»·PEaware :: OEALL KSNA-KCRQ

OEALL :: KSNA-KCRQ

FLIGHT INFORMATION

Flight Status: Arrived
Operator: Unknown
More flights by this operator :: More flights under this callsign
Pilot: Karl Tõnis L. (17918)
Aircraft: SOCATA TBM-900
(TBM9)
More flights by this aircraft type
Origin: KSNA John Wayne-Orange Co
United States
Destination: KCRQ McClellan-Palomar
United States
More flights between these airports :: More routes between these airports
Route: V25 PACIF V208 OCN
File this flight plan on PilotEdge
Remarks: DOF / 200211 OPR / PRIVATE RMK / I-2 RATING
Altitude:
(Current/Filed)
7,000ft
Speed:
(Current/Filed)
200kts
Departed: 11-Feb-20 01:09 PM
Arrived: 11-Feb-20 01:41 PM
Distance/Time
Traveled:
44nm/0:32
Distance/Time
To Go:
Arrived

Flight Plot

Page will automatically refresh every two minutes.


Map Options




Map Legend


Flown Route
Filed Route
Departure Airport
Arrival Airport
Navaid (VOR, NDB)
Fix

Horizontal Profiles

Position Reports

Time Latitude Longitude Heading Altitude Ground
Speed
11-Feb-20 12:44 33.671255 -117.874216 135 59ft 0kts
11-Feb-20 12:45 33.671255 -117.874216 135 59ft 0kts
11-Feb-20 12:46 33.671255 -117.874216 135 59ft 0kts
11-Feb-20 12:47 33.671255 -117.874216 135 59ft 0kts
11-Feb-20 12:48 33.671255 -117.874216 135 59ft 0kts
11-Feb-20 12:49 33.671255 -117.874216 135 59ft 0kts
11-Feb-20 12:50 33.671255 -117.874216 135 59ft 0kts
11-Feb-20 12:51 33.671255 -117.874216 135 59ft 0kts
11-Feb-20 12:52 33.671255 -117.874216 135 59ft 0kts
11-Feb-20 12:53 33.671255 -117.874216 135 59ft 0kts
11-Feb-20 12:55 33.671255 -117.874216 135 59ft 0kts
11-Feb-20 12:56 33.671255 -117.874216 135 59ft 0kts
11-Feb-20 12:57 33.671255 -117.874216 135 59ft 0kts
11-Feb-20 12:58 33.671255 -117.874216 135 59ft 0kts
11-Feb-20 12:59 33.671255 -117.874216 135 59ft 0kts
11-Feb-20 13:00 33.671255 -117.874216 135 59ft 0kts
11-Feb-20 13:01 33.671255 -117.874216 135 59ft 0kts
11-Feb-20 13:02 33.671255 -117.874216 135 59ft 0kts
11-Feb-20 13:03 33.671255 -117.874216 135 59ft 0kts
11-Feb-20 13:04 33.670963 -117.873928 123 59ft 0kts
11-Feb-20 13:05 33.669684 -117.874124 209 59ft 10kts
11-Feb-20 13:06 33.668285 -117.874581 142 59ft 0kts
11-Feb-20 13:07 33.668285 -117.874581 142 59ft 0kts
11-Feb-20 13:08 33.668240 -117.873569 26 59ft 0kts
11-Feb-20 13:09 33.686950 -117.861933 27 947ft 122kts
11-Feb-20 13:10 33.716473 -117.845114 27 3352ft 119kts
11-Feb-20 13:10 33.730848 -117.862122 242 5470ft 138kts
11-Feb-20 13:12 33.690761 -117.901107 221 7067ft 213kts
11-Feb-20 13:13 33.643139 -117.954568 206 7002ft 235kts
11-Feb-20 13:13 33.595663 -117.986227 202 7011ft 233kts
11-Feb-20 13:15 33.532792 -117.951320 142 7012ft 217kts
11-Feb-20 13:16 33.481768 -117.909498 141 6984ft 218kts
11-Feb-20 13:16 33.439677 -117.874846 141 6983ft 218kts
11-Feb-20 13:17 33.389284 -117.833310 141 6983ft 218kts
11-Feb-20 13:19 33.329929 -117.784379 141 7006ft 220kts
11-Feb-20 13:19 33.287643 -117.747202 120 6992ft 221kts
11-Feb-20 13:20 33.276807 -117.675926 95 7012ft 216kts
11-Feb-20 13:21 33.267195 -117.604018 95 7011ft 217kts
11-Feb-20 13:22 33.257549 -117.532442 96 6979ft 212kts
11-Feb-20 13:23 33.247101 -117.460443 96 5321ft 226kts
11-Feb-20 13:24 33.240364 -117.387413 96 5004ft 219kts
11-Feb-20 13:25 33.236427 -117.314706 96 4984ft 219kts
11-Feb-20 13:26 33.232369 -117.240381 96 4985ft 225kts
11-Feb-20 13:27 33.228405 -117.164815 96 5010ft 224kts
11-Feb-20 13:28 33.222514 -117.090499 124 4971ft 219kts
11-Feb-20 13:29 33.173588 -117.053018 193 4941ft 221kts
11-Feb-20 13:30 33.154996 -117.115247 262 3466ft 194kts
11-Feb-20 13:31 33.145205 -117.180455 271 3965ft 207kts
11-Feb-20 13:32 33.192617 -117.183409 40 3987ft 235kts
11-Feb-20 13:33 33.214506 -117.108324 91 3981ft 246kts
11-Feb-20 13:34 33.202109 -117.028717 122 3975ft 239kts
11-Feb-20 13:35 33.159916 -117.046217 278 3980ft 214kts
11-Feb-20 13:36 33.154702 -117.116819 260 3103ft 216kts
11-Feb-20 13:37 33.143258 -117.187324 259 1877ft 212kts
11-Feb-20 13:38 33.134278 -117.242829 261 905ft 133kts
11-Feb-20 13:39 33.129030 -117.275165 259 334ft 64kts
11-Feb-20 13:40 33.127540 -117.279983 231 334ft 8kts
11-Feb-20 13:41 33.126888 -117.283504 259 334ft 16kts
11-Feb-20 13:42 33.126265 -117.285230 262 334ft 0kts
11-Feb-20 13:43 33.126265 -117.285230 262 334ft 0kts

Navigation Log

Ident Type
Flight plan parsing failed, navigation log unavailable